createdAt,value
2022-09-14T00:01:03.100Z,17.30
2022-09-14T00:03:40.552Z,18.10
2022-09-14T00:06:14.235Z,14.20
2022-09-14T00:08:46.336Z,16.60
2022-09-14T00:11:21.396Z,13.20
2022-09-14T00:13:53.573Z,13.70
2022-09-14T00:16:27.830Z,14.50
2022-09-14T00:19:05.724Z,17.70
2022-09-14T00:21:42.609Z,11.50
2022-09-14T00:24:14.812Z,14.60
2022-09-14T00:26:48.274Z,13.10
2022-09-14T00:29:20.641Z,14.40
2022-09-14T00:31:54.716Z,13.90
2022-09-14T00:34:26.971Z,12.10
2022-09-14T00:37:02.475Z,13.00
2022-09-14T00:39:34.205Z,13.80
2022-09-14T00:42:09.465Z,12.30
2022-09-14T00:45:08.356Z,15.00
2022-09-14T00:47:40.338Z,13.30
2022-09-14T00:50:12.861Z,12.70
2022-09-14T00:52:54.698Z,12.30
2022-09-14T00:55:26.857Z,11.00
2022-09-14T00:57:58.709Z,12.30
2022-09-14T01:00:32.323Z,11.30
2022-09-14T01:03:05.844Z,12.60
2022-09-14T01:05:57.353Z,11.30
2022-09-14T01:08:51.211Z,13.90
2022-09-14T01:11:36.866Z,12.10
2022-09-14T01:14:18.781Z,12.80
2022-09-14T01:17:00.752Z,10.30
2022-09-14T01:19:44.335Z,11.00
2022-09-14T01:22:27.191Z,9.70
2022-09-14T01:25:10.524Z,11.80
2022-09-14T01:27:44.188Z,11.10
2022-09-14T01:30:26.212Z,13.30
2022-09-14T01:33:05.877Z,12.50
2022-09-14T01:35:43.800Z,11.20
2022-09-14T01:38:20.298Z,10.50
2022-09-14T01:40:57.192Z,10.50
2022-09-14T01:43:36.573Z,9.40
2022-09-14T01:46:12.588Z,14.10
2022-09-14T01:48:49.772Z,10.70
2022-09-14T01:51:30.628Z,10.90
2022-09-14T01:54:08.676Z,9.80
2022-09-14T01:56:45.843Z,9.00
2022-09-14T01:59:21.691Z,7.70
2022-09-14T02:02:01.559Z,10.40
2022-09-14T02:04:40.050Z,9.70
2022-09-14T02:07:12.425Z,7.80
2022-09-14T02:09:44.855Z,7.30
2022-09-14T02:12:19.126Z,8.40
2022-09-14T02:14:53.717Z,7.80
2022-09-14T02:17:26.077Z,9.30
2022-09-14T02:20:00.067Z,8.30
2022-09-14T02:22:34.737Z,10.60
2022-09-14T02:25:08.735Z,10.50
2022-09-14T02:27:40.543Z,11.00
2022-09-14T02:30:14.777Z,8.20
2022-09-14T02:32:58.085Z,9.30
2022-09-14T02:35:37.308Z,10.30
2022-09-14T02:38:16.768Z,11.20
2022-09-14T02:40:56.365Z,11.50
2022-09-14T02:43:39.647Z,8.40
2022-09-14T02:46:18.459Z,11.50
2022-09-14T02:48:58.084Z,10.10
2022-09-14T02:51:35.431Z,9.40
2022-09-14T02:54:13.985Z,7.70
2022-09-14T02:56:46.197Z,8.70
2022-09-14T02:59:19.491Z,9.90
2022-09-14T03:01:51.329Z,10.50
2022-09-14T03:04:24.793Z,8.20
2022-09-14T03:06:56.870Z,10.70
2022-09-14T03:09:28.654Z,6.50
2022-09-14T03:12:00.500Z,11.10
2022-09-14T03:14:33.152Z,6.90
2022-09-14T03:17:04.894Z,11.90
2022-09-14T03:19:36.692Z,14.70
2022-09-14T03:22:08.470Z,7.70
2022-09-14T03:24:42.591Z,9.60
2022-09-14T03:27:14.271Z,9.60
2022-09-14T03:29:47.735Z,9.90
2022-09-14T03:32:19.494Z,7.40
2022-09-14T03:34:53.215Z,9.80
2022-09-14T03:37:25.005Z,9.10
2022-09-14T03:39:56.779Z,13.20
2022-09-14T03:42:28.615Z,12.60
2022-09-14T03:45:01.236Z,11.20
2022-09-14T03:47:32.947Z,9.80
2022-09-14T03:50:11.824Z,9.50
2022-09-14T03:52:43.649Z,10.00
2022-09-14T03:55:15.512Z,7.60
2022-09-14T03:57:47.272Z,9.00
2022-09-14T04:00:27.785Z,11.70
2022-09-14T04:03:00.899Z,9.20
2022-09-14T04:05:32.791Z,8.20
2022-09-14T04:08:04.835Z,12.90
2022-09-14T04:10:39.133Z,10.80
2022-09-14T04:13:10.775Z,9.00
2022-09-14T04:15:42.563Z,10.70
2022-09-14T04:18:14.341Z,10.90
2022-09-14T04:20:48.658Z,12.90
2022-09-14T04:23:20.333Z,9.30
2022-09-14T04:25:52.668Z,11.30
2022-09-14T04:28:25.611Z,10.10
2022-09-14T04:31:05.092Z,9.00
2022-09-14T04:33:38.686Z,9.30
2022-09-14T04:36:13.584Z,12.90
2022-09-14T04:38:46.907Z,16.00
2022-09-14T04:41:22.182Z,14.70
2022-09-14T04:43:55.783Z,15.80
2022-09-14T04:46:29.909Z,17.10
2022-09-14T04:49:04.941Z,11.30
2022-09-14T04:51:39.388Z,10.00
2022-09-14T04:54:14.409Z,14.40
2022-09-14T04:56:53.191Z,9.80
2022-09-14T04:59:24.834Z,10.70
2022-09-14T05:01:57.481Z,12.60
2022-09-14T05:04:29.479Z,16.30
2022-09-14T05:07:07.612Z,10.40
2022-09-14T05:09:40.573Z,14.30
2022-09-14T05:12:12.546Z,18.70
2022-09-14T05:14:44.286Z,13.10
2022-09-14T05:17:16.077Z,12.30
2022-09-14T05:19:47.909Z,14.50
2022-09-14T05:22:22.698Z,13.40
2022-09-14T05:24:54.577Z,17.60
2022-09-14T05:27:26.402Z,14.50
2022-09-14T05:29:58.122Z,18.70
2022-09-14T05:32:29.812Z,15.70
2022-09-14T05:35:01.548Z,12.90
2022-09-14T05:37:35.009Z,18.60
2022-09-14T05:40:09.721Z,16.60
2022-09-14T05:42:42.326Z,17.40
2022-09-14T05:45:15.281Z,21.70
2022-09-14T05:47:48.204Z,17.40
2022-09-14T05:53:19.897Z,18.60
2022-09-14T05:55:59.828Z,17.80
2022-09-14T05:58:32.294Z,19.90
2022-09-14T06:01:09.368Z,19.10
2022-09-14T06:03:41.281Z,18.50
2022-09-14T06:06:15.068Z,17.00
2022-09-14T06:08:50.221Z,13.30
2022-09-14T06:11:24.788Z,16.60
2022-09-14T06:13:58.305Z,15.80
2022-09-14T06:16:30.760Z,12.00
2022-09-14T06:19:03.325Z,11.10
2022-09-14T06:21:36.477Z,8.60
2022-09-14T06:24:08.299Z,7.50
2022-09-14T06:26:40.063Z,6.40
2022-09-14T06:29:11.824Z,7.60
2022-09-14T06:31:43.499Z,8.70
2022-09-14T06:34:15.312Z,9.60
2022-09-14T06:36:46.975Z,7.80
2022-09-14T06:39:18.802Z,8.20
2022-09-14T06:41:51.978Z,8.70
2022-09-14T06:44:23.877Z,6.80
2022-09-14T06:46:55.546Z,9.90
2022-09-14T06:49:28.171Z,8.10
2022-09-14T06:52:00.911Z,5.20
2022-09-14T06:54:33.985Z,10.70
2022-09-14T06:57:07.045Z,8.50
2022-09-14T06:59:38.765Z,6.50
2022-09-14T07:02:15.138Z,9.80
2022-09-14T07:04:46.947Z,9.40
2022-09-14T07:07:19.378Z,8.60
2022-09-14T07:09:54.494Z,11.80
2022-09-14T07:12:26.214Z,7.10
2022-09-14T07:14:59.604Z,9.40
2022-09-14T07:17:31.407Z,9.70
2022-09-14T07:20:03.551Z,11.70
2022-09-14T07:22:36.946Z,5.90
2022-09-14T07:25:12.883Z,10.70
2022-09-14T07:27:44.671Z,8.00
2022-09-14T07:30:21.245Z,9.50
2022-09-14T07:32:52.988Z,9.60
2022-09-14T07:35:24.758Z,8.30
2022-09-14T07:37:56.557Z,7.40
2022-09-14T07:40:30.057Z,9.40
2022-09-14T07:43:02.089Z,6.70
2022-09-14T07:45:35.951Z,6.50
2022-09-14T07:48:08.179Z,7.90
2022-09-14T07:50:43.997Z,8.20
2022-09-14T07:53:15.852Z,6.60
2022-09-14T07:55:48.115Z,15.90
2022-09-14T07:58:19.838Z,7.60
2022-09-14T08:00:52.425Z,8.00
2022-09-14T08:03:25.376Z,10.40
2022-09-14T08:06:03.174Z,9.70
2022-09-14T08:08:37.102Z,7.20
2022-09-14T08:11:12.909Z,6.60
2022-09-14T08:13:46.842Z,9.30
2022-09-14T08:16:19.616Z,8.10
2022-09-14T08:18:56.909Z,6.60
2022-09-14T08:21:30.961Z,10.30
2022-09-14T08:24:04.368Z,7.30
2022-09-14T08:26:37.591Z,9.20
2022-09-14T08:29:09.652Z,10.70
2022-09-14T08:31:43.363Z,10.50
2022-09-14T08:34:48.191Z,7.70
2022-09-14T08:37:20.519Z,11.40
2022-09-14T08:39:53.418Z,5.70
2022-09-14T08:42:26.193Z,10.70
2022-09-14T08:45:01.986Z,10.60
2022-09-14T08:47:39.038Z,8.10
2022-09-14T08:50:18.534Z,7.10
2022-09-14T08:52:53.086Z,14.00
2022-09-14T08:55:36.591Z,9.80
2022-09-14T08:58:20.749Z,8.80
2022-09-14T09:00:56.409Z,5.60
2022-09-14T09:03:49.927Z,7.10
2022-09-14T09:06:30.408Z,4.70
2022-09-14T09:09:10.171Z,5.90
2022-09-14T09:11:46.477Z,7.60
2022-09-14T09:14:23.721Z,4.30
2022-09-14T09:16:58.235Z,5.60
2022-09-14T09:19:35.572Z,9.00
2022-09-14T09:22:13.599Z,7.90
2022-09-14T09:24:50.105Z,10.20
2022-09-14T09:27:22.082Z,7.20
2022-09-14T09:29:55.568Z,7.00
2022-09-14T09:32:28.709Z,6.00
2022-09-14T09:35:28.109Z,7.10
2022-09-14T09:37:59.969Z,6.30
2022-09-14T09:40:41.450Z,7.40
2022-09-14T09:43:21.319Z,8.20
2022-09-14T09:46:09.533Z,6.20
2022-09-14T09:48:48.487Z,9.20
2022-09-14T09:51:30.048Z,9.00
2022-09-14T09:54:08.690Z,6.30
2022-09-14T09:56:52.148Z,5.30
2022-09-14T09:59:36.424Z,6.20
2022-09-14T10:02:31.225Z,8.70
2022-09-14T10:05:07.172Z,6.50
2022-09-14T10:07:42.073Z,6.30
2022-09-14T10:10:16.140Z,6.10
2022-09-14T10:12:53.575Z,6.10
2022-09-14T10:15:26.988Z,6.70
2022-09-14T10:18:09.043Z,6.10
2022-09-14T10:20:44.266Z,8.10
2022-09-14T10:23:26.211Z,4.90
2022-09-14T10:26:20.328Z,6.40
2022-09-14T10:28:53.510Z,8.20
2022-09-14T10:31:32.334Z,11.00
2022-09-14T10:34:17.207Z,9.70
2022-09-14T10:36:56.713Z,5.00
2022-09-14T10:39:36.919Z,6.50
2022-09-14T10:42:17.794Z,5.90
2022-09-14T10:45:01.260Z,7.10
2022-09-14T10:48:00.444Z,8.20
2022-09-14T10:50:42.962Z,8.20
2022-09-14T10:53:31.419Z,6.60
2022-09-14T10:56:07.556Z,11.50
2022-09-14T10:58:58.818Z,6.70
2022-09-14T11:01:44.414Z,4.50
2022-09-14T11:04:27.938Z,6.40
2022-09-14T11:07:08.084Z,8.30
2022-09-14T11:09:49.795Z,7.10
2022-09-14T11:12:30.346Z,6.60
2022-09-14T11:15:09.677Z,6.40
2022-09-14T11:18:08.487Z,7.60
2022-09-14T11:21:05.052Z,10.00
2022-09-14T11:23:49.226Z,6.10
2022-09-14T11:26:31.486Z,6.10
2022-09-14T11:29:12.509Z,4.60
2022-09-14T11:32:10.161Z,8.30
2022-09-14T11:34:54.773Z,6.80
2022-09-14T11:37:37.473Z,9.10
2022-09-14T11:40:24.378Z,8.00
2022-09-14T11:43:06.015Z,9.10
2022-09-14T11:45:43.296Z,6.20
2022-09-14T11:48:41.877Z,6.80
2022-09-14T11:51:18.434Z,6.60
2022-09-14T11:53:50.950Z,5.20
2022-09-14T11:56:27.569Z,5.00
2022-09-14T11:59:03.484Z,6.50
2022-09-14T12:01:37.807Z,9.30
2022-09-14T12:04:19.423Z,7.70
2022-09-14T12:06:59.370Z,8.70
2022-09-14T12:09:54.956Z,6.30
2022-09-14T12:12:41.577Z,5.60
2022-09-14T12:15:20.228Z,8.10
2022-09-14T12:17:53.423Z,5.50
2022-09-14T12:20:41.485Z,7.80
2022-09-14T12:23:26.502Z,6.50
2022-09-14T12:26:02.156Z,8.00
2022-09-14T12:28:48.171Z,6.50
2022-09-14T12:31:58.075Z,6.60
2022-09-14T12:34:33.830Z,7.40
2022-09-14T12:37:37.104Z,9.40
2022-09-14T12:40:35.957Z,7.70
2022-09-14T12:43:47.325Z,9.10
2022-09-14T12:46:38.679Z,9.30
2022-09-14T12:49:39.273Z,6.60
2022-09-14T12:52:30.068Z,6.60
2022-09-14T12:55:21.337Z,8.90
2022-09-14T12:58:01.582Z,4.60
2022-09-14T13:00:48.099Z,6.10
2022-09-14T13:03:43.333Z,5.50
2022-09-14T13:06:15.903Z,4.80
2022-09-14T13:08:50.430Z,5.40
2022-09-14T13:11:29.882Z,8.40
2022-09-14T13:14:03.213Z,4.90
2022-09-14T13:16:42.616Z,6.70
2022-09-14T13:19:27.432Z,5.30
2022-09-14T13:22:00.690Z,6.20
2022-09-14T13:24:38.861Z,6.20
2022-09-14T13:27:22.709Z,7.70
2022-09-14T13:30:08.587Z,7.50
2022-09-14T13:32:44.860Z,5.60
2022-09-14T13:35:25.879Z,6.60
2022-09-14T13:40:31.318Z,8.20
2022-09-14T13:43:03.679Z,9.40
2022-09-14T13:45:37.119Z,8.90
2022-09-14T13:48:09.315Z,8.80
2022-09-14T13:50:42.018Z,6.20
2022-09-14T13:53:42.090Z,5.10
2022-09-14T13:56:23.246Z,8.10
2022-09-14T13:59:18.954Z,6.50
2022-09-14T14:01:57.193Z,9.20
2022-09-14T14:04:36.082Z,7.90
2022-09-14T14:07:19.110Z,8.70
2022-09-14T14:09:54.785Z,7.70
2022-09-14T14:12:30.138Z,9.00
2022-09-14T14:15:03.677Z,8.00
2022-09-14T14:17:38.671Z,10.10
2022-09-14T14:20:35.346Z,8.30
2022-09-14T14:23:26.316Z,4.50
2022-09-14T14:28:40.744Z,9.60
2022-09-14T14:31:18.496Z,9.90
2022-09-14T14:33:53.413Z,9.70
2022-09-14T14:36:25.148Z,7.90
2022-09-14T14:38:58.596Z,9.20
2022-09-14T14:41:30.318Z,10.20
2022-09-14T14:44:02.305Z,16.10
2022-09-14T14:46:34.295Z,8.60
2022-09-14T14:49:06.078Z,10.60
2022-09-14T14:51:39.654Z,11.20
2022-09-14T14:54:11.789Z,8.50
2022-09-14T14:56:44.149Z,6.70
2022-09-14T14:59:31.118Z,6.50
2022-09-14T15:02:03.132Z,6.30
2022-09-14T15:04:35.206Z,7.20
2022-09-14T15:07:06.995Z,6.70
2022-09-14T15:09:38.739Z,8.20
2022-09-14T15:12:10.939Z,6.20
2022-09-14T15:14:42.918Z,10.90
2022-09-14T15:17:15.489Z,5.00
2022-09-14T15:19:47.261Z,6.70
2022-09-14T15:22:19.112Z,8.10
2022-09-14T15:24:50.847Z,9.30
2022-09-14T15:27:22.630Z,7.10
2022-09-14T15:29:57.658Z,8.40
2022-09-14T15:32:29.391Z,7.30
2022-09-14T15:35:01.408Z,11.00
2022-09-14T15:37:39.876Z,6.40
2022-09-14T15:40:15.471Z,11.40
2022-09-14T15:42:47.207Z,8.50
2022-09-14T15:45:19.645Z,6.80
2022-09-14T15:47:51.390Z,7.60
2022-09-14T15:50:25.553Z,9.60
2022-09-14T15:53:02.418Z,6.90
2022-09-14T15:55:34.535Z,7.80
2022-09-14T15:58:06.418Z,11.40
2022-09-14T16:00:43.461Z,10.10
2022-09-14T16:03:15.337Z,8.50
2022-09-14T16:05:47.147Z,10.40
2022-09-14T16:08:19.199Z,13.80
2022-09-14T16:10:59.262Z,10.20
2022-09-14T16:13:31.357Z,10.40
2022-09-14T16:16:08.393Z,14.70
2022-09-14T16:18:41.093Z,9.10
2022-09-14T16:21:17.088Z,9.80
2022-09-14T16:23:51.224Z,9.10
2022-09-14T16:26:25.131Z,10.70
2022-09-14T16:28:57.381Z,10.20
2022-09-14T16:31:31.827Z,6.70
2022-09-14T16:34:06.167Z,7.90
2022-09-14T16:36:39.935Z,8.00
2022-09-14T16:39:14.258Z,8.10
2022-09-14T16:41:47.347Z,8.90
2022-09-14T16:44:25.781Z,9.40
2022-09-14T16:46:59.239Z,6.50
2022-09-14T16:49:31.191Z,9.70
2022-09-14T16:52:04.254Z,11.40
2022-09-14T16:54:36.220Z,10.00
2022-09-14T16:57:08.332Z,11.00
2022-09-14T16:59:40.459Z,7.90
2022-09-14T17:02:14.865Z,9.30
2022-09-14T17:04:46.974Z,13.40
2022-09-14T17:07:19.288Z,11.40
2022-09-14T17:09:52.121Z,11.00
2022-09-14T17:12:24.719Z,12.60
2022-09-14T17:14:56.970Z,11.30
2022-09-14T17:17:29.480Z,16.50
2022-09-14T17:20:01.763Z,13.80
2022-09-14T17:22:39.596Z,9.60
2022-09-14T17:25:16.810Z,12.20
2022-09-14T17:27:49.553Z,16.60
2022-09-14T17:30:23.855Z,17.90
2022-09-14T17:32:58.734Z,16.70
2022-09-14T17:35:30.958Z,13.80
2022-09-14T17:38:03.119Z,13.60
2022-09-14T17:40:35.314Z,11.40
2022-09-14T17:43:08.213Z,10.20
2022-09-14T17:45:40.602Z,14.00
2022-09-14T17:48:12.798Z,16.20
2022-09-14T17:50:44.956Z,29.80
2022-09-14T17:53:17.723Z,43.20
2022-09-14T17:55:50.145Z,46.60
2022-09-14T17:58:22.479Z,44.10
2022-09-14T18:01:06.492Z,43.30
2022-09-14T18:03:39.694Z,42.00
2022-09-14T18:06:13.886Z,37.10
2022-09-14T18:08:46.731Z,36.60
2022-09-14T18:11:19.900Z,34.70
2022-09-14T18:13:53.904Z,23.60
2022-09-14T18:16:27.517Z,20.90
2022-09-14T18:19:01.007Z,22.00
2022-09-14T18:21:33.346Z,23.60
2022-09-14T18:24:06.541Z,18.20
2022-09-14T18:26:39.358Z,18.40
2022-09-14T18:29:14.873Z,19.10
2022-09-14T18:31:47.387Z,18.90
2022-09-14T18:34:21.463Z,17.50
2022-09-14T18:36:54.889Z,22.60
2022-09-14T18:39:27.081Z,20.30
2022-09-14T18:41:59.199Z,21.20
2022-09-14T18:44:31.159Z,22.50
2022-09-14T18:47:04.041Z,16.60
2022-09-14T18:49:35.923Z,14.90
2022-09-14T18:52:07.854Z,17.80
2022-09-14T18:54:39.687Z,18.00
2022-09-14T18:57:11.652Z,19.40
2022-09-14T18:59:43.645Z,17.50
2022-09-14T19:02:15.874Z,23.30
2022-09-14T19:04:49.111Z,20.00
2022-09-14T19:07:20.991Z,21.40
2022-09-14T19:09:53.074Z,19.20
2022-09-14T19:12:25.329Z,18.50
2022-09-14T19:14:57.693Z,21.20
2022-09-14T19:17:29.735Z,20.70
2022-09-14T19:20:02.063Z,19.20
2022-09-14T19:22:34.162Z,25.60
2022-09-14T19:25:07.605Z,24.50
2022-09-14T19:27:39.492Z,24.90
2022-09-14T19:30:18.955Z,18.30
2022-09-14T19:32:50.912Z,35.90
2022-09-14T19:35:23.563Z,32.70
2022-09-14T19:37:55.780Z,40.70
2022-09-14T19:40:28.694Z,46.50
2022-09-14T19:43:00.598Z,37.80
2022-09-14T19:45:32.884Z,32.30
2022-09-14T19:48:05.214Z,32.20
2022-09-14T19:50:38.698Z,30.50
2022-09-14T19:53:10.478Z,30.10
2022-09-14T19:55:42.283Z,28.70
2022-09-14T19:58:14.017Z,29.80
2022-09-14T20:00:47.421Z,24.70
2022-09-14T20:03:19.527Z,24.50
2022-09-14T20:05:59.580Z,26.30
2022-09-14T20:08:32.304Z,25.70
2022-09-14T20:11:09.078Z,26.20
2022-09-14T20:13:41.551Z,31.70
2022-09-14T20:16:15.798Z,28.90
2022-09-14T20:18:48.839Z,30.60
2022-09-14T20:21:23.896Z,29.00
2022-09-14T20:24:19.296Z,33.60
2022-09-14T20:26:53.236Z,36.00
2022-09-14T20:29:26.180Z,32.80
2022-09-14T20:31:58.186Z,35.40
2022-09-14T20:34:30.321Z,29.60
2022-09-14T20:37:02.138Z,23.70
2022-09-14T20:39:36.057Z,25.10
2022-09-14T20:42:10.055Z,17.30
2022-09-14T20:44:41.969Z,19.40
2022-09-14T20:47:13.804Z,15.30
2022-09-14T20:49:45.647Z,14.80
2022-09-14T20:52:19.225Z,16.20
2022-09-14T20:54:50.983Z,15.40
2022-09-14T20:57:24.293Z,17.40
2022-09-14T20:59:57.741Z,16.00
2022-09-14T21:02:30.725Z,18.30
2022-09-14T21:05:02.544Z,15.40
2022-09-14T21:07:34.468Z,13.90
2022-09-14T21:10:10.385Z,19.20
2022-09-14T21:12:43.259Z,12.70
2022-09-14T21:15:15.860Z,12.00
2022-09-14T21:17:52.686Z,12.10
2022-09-14T21:20:25.780Z,14.90
2022-09-14T21:23:00.235Z,13.70
2022-09-14T21:25:35.815Z,14.40
2022-09-14T21:28:08.878Z,15.20
2022-09-14T21:30:41.039Z,13.90
2022-09-14T21:33:17.425Z,18.00
2022-09-14T21:35:50.140Z,19.00
2022-09-14T21:38:22.345Z,16.90
2022-09-14T21:40:55.095Z,15.30
2022-09-14T21:43:30.037Z,15.50
2022-09-14T21:46:02.462Z,15.90
2022-09-14T21:48:36.150Z,19.20
2022-09-14T21:51:15.827Z,19.60
2022-09-14T21:53:49.402Z,18.50
2022-09-14T21:56:23.507Z,21.20
2022-09-14T21:58:57.697Z,18.60
2022-09-14T22:01:30.946Z,15.60
2022-09-14T22:04:04.463Z,18.90
2022-09-14T22:06:36.994Z,17.30
2022-09-14T22:09:09.497Z,16.10
2022-09-14T22:11:49.639Z,16.60
2022-09-14T22:14:23.951Z,18.90
2022-09-14T22:16:56.545Z,14.60
2022-09-14T22:19:30.772Z,15.70
2022-09-14T22:22:03.857Z,13.00
2022-09-14T22:24:39.744Z,14.50
2022-09-14T22:27:13.246Z,14.10
2022-09-14T22:29:45.594Z,12.30
2022-09-14T22:32:20.918Z,14.50
2022-09-14T22:34:53.701Z,12.90
2022-09-14T22:37:25.785Z,15.80
2022-09-14T22:39:57.916Z,17.10
2022-09-14T22:42:31.584Z,17.70
2022-09-14T22:45:03.647Z,12.80
2022-09-14T22:47:35.792Z,19.60
2022-09-14T22:50:20.372Z,15.80
2022-09-14T22:52:52.362Z,17.80
2022-09-14T22:55:25.719Z,19.70
2022-09-14T22:57:57.828Z,13.20
2022-09-14T23:00:33.218Z,13.80
2022-09-14T23:03:05.339Z,12.70
2022-09-14T23:05:38.119Z,13.90
2022-09-14T23:08:11.959Z,16.20
2022-09-14T23:10:45.651Z,13.40
2022-09-14T23:13:18.196Z,14.80
2022-09-14T23:15:50.277Z,16.70
2022-09-14T23:18:22.866Z,19.60
2022-09-14T23:20:57.522Z,14.90
2022-09-14T23:23:29.610Z,13.60
2022-09-14T23:26:06.761Z,13.00
2022-09-14T23:28:39.474Z,13.70
2022-09-14T23:31:13.298Z,14.80
2022-09-14T23:33:45.719Z,15.80
2022-09-14T23:36:17.870Z,11.90
2022-09-14T23:38:50.029Z,13.80
2022-09-14T23:41:26.979Z,16.50
2022-09-14T23:43:58.862Z,13.70
2022-09-14T23:46:31.600Z,16.90
2022-09-14T23:49:03.514Z,15.80
2022-09-14T23:51:37.800Z,14.20
2022-09-14T23:54:10.703Z,16.00
2022-09-14T23:56:42.721Z,15.60
2022-09-14T23:59:16.322Z,13.60
